Time;durP1;ratioP1;P1;durP2;ratioP2;P2;SDS_P1;SDS_P2;PMS_P1;PMS_P2;Temp;Humidity;BMP_temperature;BMP_pressure;BME280_temperature;BME280_humidity;BME280_pressure;Samples;Min_cycle;Max_cycle;Signal;HPM_P1;HPM_P2
2021/09/04 00:00:30;;;;;;;5.38;5.07;;;23.80;59.00;;;;;;5056546;28;20044;-84
2021/09/04 00:02:56;;;;;;;5.13;4.82;;;23.80;59.10;;;;;;5055241;28;20109;-84
2021/09/04 00:05:22;;;;;;;5.65;5.20;;;23.80;59.20;;;;;;5055230;28;20158;-83
2021/09/04 00:07:48;;;;;;;6.00;4.93;;;23.80;59.30;;;;;;5052369;28;20036;-84
2021/09/04 00:10:14;;;;;;;4.80;4.50;;;23.70;59.30;;;;;;5051013;28;20037;-84
2021/09/04 00:12:40;;;;;;;5.30;5.00;;;23.70;59.40;;;;;;5054279;28;20036;-84
2021/09/04 00:15:07;;;;;;;6.85;5.63;;;23.60;59.40;;;;;;5055745;28;20029;-81
2021/09/04 00:17:33;;;;;;;5.57;5.10;;;23.60;59.50;;;;;;5055004;28;20025;-84
2021/09/04 00:19:59;;;;;;;4.78;4.57;;;23.60;59.60;;;;;;5055076;28;20029;-84
2021/09/04 00:22:26;;;;;;;5.18;4.70;;;23.60;59.70;;;;;;5052632;28;20385;-86
2021/09/04 00:24:52;;;;;;;4.43;4.22;;;23.50;59.70;;;;;;5051250;28;20079;-84
2021/09/04 00:27:18;;;;;;;4.80;4.40;;;23.50;59.80;;;;;;5055821;28;20378;-83
2021/09/04 00:29:44;;;;;;;4.43;4.03;;;23.50;59.80;;;;;;5054921;28;20092;-84
2021/09/04 00:32:10;;;;;;;4.22;4.03;;;23.50;59.90;;;;;;5036627;28;20037;-84
2021/09/04 00:34:36;;;;;;;4.40;4.20;;;23.50;60.00;;;;;;5053479;28;20044;-84
2021/09/04 00:37:03;;;;;;;4.45;4.20;;;23.50;60.00;;;;;;5049430;28;20041;-82
2021/09/04 00:39:29;;;;;;;3.90;3.70;;;23.50;60.10;;;;;;5056135;28;20470;-84
2021/09/04 00:41:55;;;;;;;4.20;4.00;;;23.50;60.10;;;;;;5035607;28;20036;-84
2021/09/04 00:44:22;;;;;;;4.75;4.50;;;23.40;60.20;;;;;;5054720;28;20071;-84
2021/09/04 00:46:48;;;;;;;3.90;3.70;;;23.40;60.20;;;;;;5051393;28;20047;-84
2021/09/04 00:49:14;;;;;;;3.90;3.70;;;23.40;60.30;;;;;;5052074;28;20029;-84
2021/09/04 00:51:40;;;;;;;4.05;3.85;;;23.40;60.40;;;;;;5053814;28;20029;-82
2021/09/04 00:54:07;;;;;;;3.83;3.63;;;23.40;60.40;;;;;;5055469;28;20055;-83
2021/09/04 00:56:33;;;;;;;4.00;3.80;;;23.40;60.40;;;;;;5036987;28;20399;-84
2021/09/04 00:59:05;;;;;;;3.80;3.60;;;23.40;60.40;;;;;;5038198;28;20033;-84
2021/09/04 01:01:31;;;;;;;4.35;4.15;;;23.30;60.50;;;;;;5053948;28;20028;-84
2021/09/04 01:03:57;;;;;;;4.38;3.75;;;23.30;60.60;;;;;;5049315;28;20474;-84
2021/09/04 01:06:24;;;;;;;4.10;3.85;;;23.30;60.60;;;;;;5060162;28;20049;-84
2021/09/04 01:08:50;;;;;;;4.10;3.83;;;23.30;60.80;;;;;;5058199;28;20474;-83
2021/09/04 01:11:16;;;;;;;4.07;3.88;;;23.30;61.60;;;;;;5058516;28;20037;-84
2021/09/04 01:13:43;;;;;;;3.58;3.40;;;23.30;60.90;;;;;;5058445;28;20036;-84
2021/09/04 01:16:09;;;;;;;3.92;3.65;;;23.20;60.90;;;;;;5054595;28;20044;-84
2021/09/04 01:18:35;;;;;;;4.40;4.13;;;23.30;61.00;;;;;;5041143;28;20029;-84
2021/09/04 01:21:06;;;;;;;3.70;3.50;;;23.20;61.10;;;;;;5057660;28;20055;-84
2021/09/04 01:23:32;;;;;;;3.90;3.70;;;23.20;61.10;;;;;;5058195;28;20021;-84
2021/09/04 01:26:05;;;;;;;4.78;4.32;;;23.20;61.20;;;;;;5056670;28;20033;-83
2021/09/04 01:28:32;;;;;;;4.03;3.72;;;23.20;61.20;;;;;;5056876;28;20024;-84
2021/09/04 01:30:58;;;;;;;3.58;3.38;;;23.20;61.20;;;;;;5053640;28;20029;-84
2021/09/04 01:33:24;;;;;;;4.13;3.85;;;23.20;61.30;;;;;;5058598;28;20025;-84
2021/09/04 01:35:50;;;;;;;4.25;3.95;;;23.20;61.40;;;;;;5057719;28;20033;-84
2021/09/04 01:38:16;;;;;;;3.70;3.50;;;23.10;61.50;;;;;;5058008;28;20025;-83
2021/09/04 01:40:42;;;;;;;4.13;3.92;;;23.10;61.50;;;;;;5056721;28;20036;-84
2021/09/04 01:43:08;;;;;;;3.92;3.72;;;23.10;61.50;;;;;;5054311;28;20064;-83
2021/09/04 01:45:36;;;;;;;4.50;4.20;;;23.10;61.60;;;;;;5057605;28;20052;-82
2021/09/04 01:48:02;;;;;;;4.32;4.03;;;23.10;61.70;;;;;;5058356;28;20386;-84
2021/09/04 01:50:28;;;;;;;4.00;3.80;;;23.10;61.80;;;;;;5057560;28;20021;-84
2021/09/04 01:52:55;;;;;;;3.92;3.72;;;23.10;61.80;;;;;;5039922;28;20041;-83
2021/09/04 01:55:21;;;;;;;4.22;4.03;;;23.10;61.90;;;;;;5056072;28;20393;-84
2021/09/04 01:57:47;;;;;;;3.70;3.50;;;23.00;61.90;;;;;;5054412;28;20060;-83
2021/09/04 02:00:14;;;;;;;4.20;4.00;;;23.00;62.00;;;;;;5053683;28;20021;-84
2021/09/04 02:02:40;;;;;;;3.70;3.50;;;23.00;62.10;;;;;;5031037;28;20370;-84
2021/09/04 02:05:07;;;;;;;3.92;3.72;;;23.00;62.20;;;;;;5044533;28;20389;-83
2021/09/04 02:07:33;;;;;;;3.88;3.58;;;23.00;62.20;;;;;;5048511;28;20286;-84
2021/09/04 02:09:59;;;;;;;3.63;3.42;;;22.90;62.20;;;;;;5049420;28;20033;-84
2021/09/04 02:12:26;;;;;;;3.70;3.50;;;23.00;62.30;;;;;;5057079;28;20051;-83
2021/09/04 02:14:52;;;;;;;4.43;4.13;;;23.00;62.30;;;;;;5043999;28;20386;-84
2021/09/04 02:17:18;;;;;;;3.78;3.58;;;23.00;62.30;;;;;;5042261;28;20033;-83
2021/09/04 02:19:45;;;;;;;3.88;3.67;;;23.00;62.40;;;;;;5036565;28;20040;-84
2021/09/04 02:22:11;;;;;;;3.80;3.60;;;23.00;62.40;;;;;;5042346;28;20026;-84
2021/09/04 02:24:38;;;;;;;4.45;4.25;;;23.00;62.50;;;;;;5034750;28;20021;-83
2021/09/04 02:27:04;;;;;;;3.60;3.40;;;23.00;62.50;;;;;;5063239;28;20064;-82
2021/09/04 02:29:30;;;;;;;11.68;3.85;;;22.90;62.50;;;;;;5041608;28;20029;-83
2021/09/04 02:31:56;;;;;;;3.80;3.60;;;22.90;62.50;;;;;;5037481;28;20398;-84
2021/09/04 02:34:23;;;;;;;4.15;3.85;;;22.90;62.60;;;;;;5035858;28;20049;-84
2021/09/04 02:36:49;;;;;;;3.70;3.50;;;22.90;62.60;;;;;;5045194;28;20387;-84
2021/09/04 02:39:15;;;;;;;3.35;3.15;;;22.90;62.70;;;;;;5057170;28;20029;-84
2021/09/04 02:41:42;;;;;;;4.00;3.80;;;22.90;62.70;;;;;;5056879;28;20331;-84
2021/09/04 02:44:08;;;;;;;3.67;3.47;;;22.90;62.80;;;;;;5054050;28;20474;-84
2021/09/04 02:46:34;;;;;;;3.80;3.60;;;22.90;62.80;;;;;;5055249;28;20400;-84
2021/09/04 02:49:00;;;;;;;3.63;3.42;;;22.90;62.90;;;;;;5017287;28;20041;-84
2021/09/04 02:51:26;;;;;;;3.55;3.25;;;22.90;63.00;;;;;;5090751;28;20029;-83
2021/09/04 02:53:52;;;;;;;4.10;3.80;;;22.80;63.00;;;;;;5056475;28;20096;-84
2021/09/04 02:56:19;;;;;;;3.97;3.78;;;22.80;63.10;;;;;;5056509;28;20025;-84
2021/09/04 02:58:45;;;;;;;3.70;3.50;;;22.80;63.20;;;;;;5056820;28;20489;-84
2021/09/04 03:01:11;;;;;;;4.03;3.60;;;22.70;63.30;;;;;;5052877;28;20033;-84
2021/09/04 03:03:37;;;;;;;4.00;3.80;;;22.70;63.30;;;;;;5055976;28;20383;-82
2021/09/04 03:06:03;;;;;;;3.83;3.63;;;22.70;63.40;;;;;;5055957;28;20143;-83
2021/09/04 03:08:29;;;;;;;3.58;3.40;;;22.70;63.50;;;;;;5056340;28;20587;-84
2021/09/04 03:10:55;;;;;;;4.05;3.85;;;22.70;63.50;;;;;;5056352;28;20033;-84
2021/09/04 03:13:22;;;;;;;3.58;3.38;;;22.70;63.60;;;;;;5051906;28;20032;-83
2021/09/04 03:15:48;;;;;;;3.38;3.22;;;22.60;63.50;;;;;;5067400;28;20409;-82
2021/09/04 03:18:14;;;;;;;6.07;3.55;;;22.60;63.60;;;;;;5056667;28;20025;-84
2021/09/04 03:20:40;;;;;;;3.70;3.50;;;22.60;63.80;;;;;;5054839;28;20402;-84
2021/09/04 03:23:06;;;;;;;3.88;3.67;;;22.60;63.80;;;;;;5054632;28;20037;-82
2021/09/04 03:25:32;;;;;;;4.32;3.92;;;22.60;63.90;;;;;;5054609;28;20028;-82
2021/09/04 03:27:58;;;;;;;3.53;3.33;;;22.50;63.90;;;;;;5050940;28;20508;-83
2021/09/04 03:30:24;;;;;;;4.35;4.10;;;22.50;64.00;;;;;;5056126;28;20025;-84
2021/09/04 03:32:50;;;;;;;4.43;4.22;;;22.50;64.10;;;;;;5053924;28;20528;-84
2021/09/04 03:35:17;;;;;;;3.95;3.75;;;22.50;64.20;;;;;;5055656;28;20033;-83
2021/09/04 03:37:43;;;;;;;4.38;4.07;;;22.40;64.20;;;;;;5054567;28;20045;-84
2021/09/04 03:40:10;;;;;;;4.10;3.80;;;22.40;64.30;;;;;;5051179;28;20033;-84
2021/09/04 03:42:36;;;;;;;4.70;4.50;;;22.40;64.40;;;;;;5055955;28;20040;-83
2021/09/04 03:45:02;;;;;;;4.47;4.28;;;22.30;64.40;;;;;;5056185;28;20512;-85
2021/09/04 03:47:29;;;;;;;5.15;4.85;;;22.30;64.40;;;;;;5053154;28;20052;-84
2021/09/04 03:49:55;;;;;;;4.55;4.35;;;22.30;64.60;;;;;;5055578;28;20029;-83
2021/09/04 03:52:21;;;;;;;4.57;4.38;;;22.30;64.60;;;;;;5052361;28;20062;-84
2021/09/04 03:54:48;;;;;;;5.13;4.72;;;22.20;64.60;;;;;;5052667;28;20040;-82
2021/09/04 03:57:14;;;;;;;4.80;4.60;;;22.20;64.70;;;;;;5057409;28;20060;-84
2021/09/04 03:59:40;;;;;;;4.95;4.65;;;22.20;64.70;;;;;;5055264;28;20029;-82
2021/09/04 04:02:06;;;;;;;5.18;4.88;;;22.10;64.80;;;;;;5052978;28;20037;-84
2021/09/04 04:04:32;;;;;;;4.25;4.05;;;22.10;64.80;;;;;;5037370;28;20378;-84
2021/09/04 04:06:58;;;;;;;5.03;4.72;;;22.10;64.90;;;;;;5050993;28;20029;-84
2021/09/04 04:09:24;;;;;;;4.95;4.65;;;22.00;65.00;;;;;;5055992;28;20036;-84
2021/09/04 04:11:50;;;;;;;3.83;3.63;;;22.00;65.00;;;;;;5055156;28;20382;-84
2021/09/04 04:14:16;;;;;;;4.63;4.20;;;22.00;65.10;;;;;;5055087;28;20029;-83
2021/09/04 04:16:42;;;;;;;4.30;4.10;;;22.00;65.20;;;;;;5054434;28;20393;-83
2021/09/04 04:19:08;;;;;;;3.95;3.75;;;22.00;65.30;;;;;;5050371;28;20029;-83
2021/09/04 04:21:36;;;;;;;3.78;3.58;;;21.90;65.30;;;;;;5055680;28;20033;-82
2021/09/04 04:24:03;;;;;;;4.00;3.80;;;21.90;65.30;;;;;;5055349;28;20045;-83
2021/09/04 04:26:29;;;;;;;4.60;4.30;;;21.90;65.30;;;;;;5052970;28;20033;-83
2021/09/04 04:28:55;;;;;;;4.78;4.43;;;21.90;65.40;;;;;;5054994;28;20041;-84
2021/09/04 04:31:21;;;;;;;4.22;4.03;;;21.90;65.50;;;;;;5050930;28;20494;-84
2021/09/04 04:33:47;;;;;;;4.32;4.05;;;21.90;65.50;;;;;;5050956;28;20045;-83
2021/09/04 04:36:13;;;;;;;4.15;3.85;;;21.90;65.50;;;;;;5056741;28;20466;-84
2021/09/04 04:38:39;;;;;;;3.88;3.67;;;21.90;65.50;;;;;;5054991;28;20029;-84
2021/09/04 04:41:05;;;;;;;4.95;4.70;;;21.80;65.50;;;;;;5051658;28;20033;-84
2021/09/04 04:43:31;;;;;;;4.30;4.10;;;21.80;65.60;;;;;;5054429;28;20024;-84
2021/09/04 04:45:57;;;;;;;4.68;4.45;;;21.80;65.70;;;;;;5048684;28;20036;-83
2021/09/04 04:48:23;;;;;;;5.70;5.30;;;21.80;65.70;;;;;;5055527;28;20033;-84
2021/09/04 04:50:50;;;;;;;5.15;4.75;;;21.70;65.70;;;;;;5054648;28;20025;-83
2021/09/04 04:53:17;;;;;;;5.18;4.80;;;21.70;65.80;;;;;;5054960;28;20052;-84
2021/09/04 04:55:43;;;;;;;5.10;4.32;;;21.70;65.80;;;;;;5054562;28;20032;-84
2021/09/04 04:58:09;;;;;;;5.20;5.00;;;21.70;65.90;;;;;;5051230;28;20028;-84
2021/09/04 05:00:36;;;;;;;4.78;4.47;;;21.60;65.90;;;;;;5036498;28;20033;-84
2021/09/04 05:03:03;;;;;;;5.30;5.07;;;21.60;66.00;;;;;;5055218;28;20037;-84
2021/09/04 05:05:30;;;;;;;4.72;4.43;;;21.50;66.10;;;;;;5054505;28;20025;-83
2021/09/04 05:07:56;;;;;;;4.78;4.57;;;21.50;66.10;;;;;;5054492;28;20413;-83
2021/09/04 05:10:22;;;;;;;7.15;4.00;;;21.50;66.20;;;;;;5051479;28;20022;-83
2021/09/04 05:12:48;;;;;;;4.55;4.25;;;21.50;66.30;;;;;;5050513;28;20449;-82
2021/09/04 05:15:14;;;;;;;4.55;4.30;;;21.40;66.30;;;;;;5055722;28;20029;-84
2021/09/04 05:17:40;;;;;;;4.18;3.88;;;21.40;66.40;;;;;;5053431;28;20033;-82
2021/09/04 05:20:07;;;;;;;4.20;3.95;;;21.40;66.40;;;;;;5052912;28;20036;-84
2021/09/04 05:22:33;;;;;;;3.97;3.78;;;21.40;66.50;;;;;;5054338;28;20025;-84
2021/09/04 05:24:59;;;;;;;4.95;4.55;;;21.30;66.50;;;;;;5048888;28;20493;-84
2021/09/04 05:27:25;;;;;;;4.55;4.18;;;21.30;66.50;;;;;;5056605;28;20044;-84
2021/09/04 05:29:52;;;;;;;4.55;4.35;;;21.30;66.50;;;;;;5052826;28;20032;-83
2021/09/04 05:32:23;;;;;;;5.20;4.90;;;21.30;66.60;;;;;;5053903;28;20037;-83
2021/09/04 05:34:52;;;;;;;4.63;4.43;;;21.30;66.60;;;;;;5054084;28;20490;-83
2021/09/04 05:37:18;;;;;;;4.53;4.32;;;21.30;66.60;;;;;;5050840;28;20040;-85
2021/09/04 05:39:45;;;;;;;5.55;5.15;;;21.30;66.60;;;;;;5052455;28;20032;-83
2021/09/04 05:42:11;;;;;;;4.78;4.53;;;21.30;66.60;;;;;;5055410;28;20041;-83
2021/09/04 05:44:37;;;;;;;5.10;4.82;;;21.40;66.60;;;;;;5054153;28;20478;-84
2021/09/04 05:47:03;;;;;;;4.80;4.50;;;21.40;66.60;;;;;;5053667;28;20394;-84
2021/09/04 05:49:29;;;;;;;4.78;4.47;;;21.40;66.60;;;;;;5051891;28;20037;-84
2021/09/04 05:51:55;;;;;;;4.55;4.35;;;21.40;66.60;;;;;;5051745;28;20437;-84
2021/09/04 05:54:21;;;;;;;5.50;5.20;;;21.40;66.60;;;;;;5059591;28;20033;-84
2021/09/04 05:56:47;;;;;;;5.25;4.95;;;21.40;66.60;;;;;;5039651;28;20033;-82
2021/09/04 05:59:13;;;;;;;4.93;4.72;;;21.40;66.60;;;;;;5056230;28;20036;-83
2021/09/04 06:01:39;;;;;;;5.50;5.20;;;21.40;66.60;;;;;;5057002;28;20029;-83
2021/09/04 06:04:05;;;;;;;5.25;4.97;;;21.40;66.60;;;;;;5052078;28;20041;-84
2021/09/04 06:06:32;;;;;;;4.88;4.57;;;21.50;66.60;;;;;;5059131;28;20025;-84
2021/09/04 06:09:02;;;;;;;5.28;4.97;;;21.50;66.50;;;;;;5056537;28;20043;-83
2021/09/04 06:11:28;;;;;;;4.75;4.55;;;21.50;66.50;;;;;;5057075;28;20024;-84
2021/09/04 06:13:54;;;;;;;5.22;5.03;;;21.50;66.50;;;;;;5056279;28;20051;-85
2021/09/04 06:16:20;;;;;;;5.07;4.78;;;21.60;66.50;;;;;;5054888;28;20033;-83
2021/09/04 06:18:46;;;;;;;5.10;4.72;;;21.60;66.40;;;;;;5055114;28;20032;-83
2021/09/04 06:21:12;;;;;;;4.07;3.88;;;21.60;66.40;;;;;;5057035;28;20032;-85
2021/09/04 06:23:38;;;;;;;4.18;3.88;;;21.70;66.20;;;;;;5056957;28;20394;-84
2021/09/04 06:26:04;;;;;;;5.20;5.00;;;22.00;65.90;;;;;;5056782;28;20032;-84
2021/09/04 06:28:30;;;;;;;5.38;4.95;;;22.20;65.50;;;;;;5055237;28;20059;-84
2021/09/04 06:30:56;;;;;;;4.93;4.55;;;22.50;65.00;;;;;;5051569;28;20029;-84
2021/09/04 06:33:22;;;;;;;5.60;5.30;;;22.80;64.60;;;;;;5057507;28;20029;-83
2021/09/04 06:35:48;;;;;;;5.28;4.90;;;23.00;64.00;;;;;;5056933;28;20049;-83
2021/09/04 06:38:15;;;;;;;5.68;5.38;;;23.30;63.70;;;;;;5055424;28;20382;-84
2021/09/04 06:40:41;;;;;;;5.78;5.38;;;23.50;63.30;;;;;;5056561;28;20032;-84
2021/09/04 06:43:07;;;;;;;5.10;4.90;;;23.70;63.00;;;;;;5051712;28;20034;-84
2021/09/04 06:45:33;;;;;;;6.93;6.53;;;23.90;62.80;;;;;;5057482;28;20033;-84
2021/09/04 06:47:59;;;;;;;6.32;5.93;;;24.00;62.60;;;;;;5054274;28;20519;-84
2021/09/04 06:50:25;;;;;;;5.78;5.47;;;24.10;62.50;;;;;;5056677;28;20036;-84
2021/09/04 06:52:52;;;;;;;6.40;6.00;;;24.30;62.50;;;;;;5056519;28;20047;-84
2021/09/04 06:55:18;;;;;;;7.63;7.18;;;24.30;62.40;;;;;;5053943;28;20473;-83
2021/09/04 06:57:44;;;;;;;7.55;7.15;;;24.30;62.50;;;;;;5054807;28;20044;-84
2021/09/04 07:00:11;;;;;;;6.10;5.70;;;24.20;62.60;;;;;;5057574;28;20025;-83
2021/09/04 07:02:37;;;;;;;5.78;5.47;;;24.10;62.80;;;;;;5055601;28;20378;-84
2021/09/04 07:05:03;;;;;;;5.95;5.65;;;24.10;63.00;;;;;;5040615;28;20037;-85
2021/09/04 07:07:30;;;;;;;5.38;5.07;;;24.00;63.20;;;;;;5036317;28;20041;-85
2021/09/04 07:09:56;;;;;;;6.20;5.75;;;23.90;63.40;;;;;;5052252;28;20032;-84
2021/09/04 07:12:22;;;;;;;6.47;6.18;;;23.80;63.50;;;;;;5058281;28;20489;-84
2021/09/04 07:14:48;;;;;;;6.20;5.85;;;23.80;63.60;;;;;;5056305;28;20033;-85
2021/09/04 07:17:14;;;;;;;5.40;5.10;;;23.80;63.70;;;;;;5052967;28;20497;-84
2021/09/04 07:19:40;;;;;;;6.00;5.70;;;23.80;63.60;;;;;;5055963;28;20032;-85
2021/09/04 07:22:07;;;;;;;6.45;6.15;;;23.90;63.50;;;;;;5052204;28;20501;-84
2021/09/04 07:24:33;;;;;;;6.50;6.03;;;24.00;63.30;;;;;;5055769;28;20021;-82
2021/09/04 07:26:59;;;;;;;5.75;5.40;;;24.10;63.20;;;;;;5055152;28;20473;-84
2021/09/04 07:29:26;;;;;;;5.70;5.40;;;24.10;63.00;;;;;;5054670;28;20044;-85
2021/09/04 07:31:52;;;;;;;6.18;5.82;;;24.30;62.90;;;;;;5055585;28;20033;-85
2021/09/04 07:34:18;;;;;;;6.50;6.10;;;24.30;62.70;;;;;;5053316;28;20417;-85
2021/09/04 07:36:44;;;;;;;7.95;7.55;;;24.40;62.60;;;;;;5053195;28;20132;-85
2021/09/04 07:39:10;;;;;;;8.43;7.82;;;24.40;62.50;;;;;;5056906;28;20392;-85
2021/09/04 07:41:36;;;;;;;6.60;6.30;;;24.50;62.40;;;;;;5055701;28;20037;-82
2021/09/04 07:44:02;;;;;;;7.38;6.82;;;24.60;62.30;;;;;;5054377;28;20029;-84
2021/09/04 07:46:29;;;;;;;9.32;8.82;;;24.80;62.10;;;;;;5054802;28;20040;-80
2021/09/04 07:48:55;;;;;;;8.50;8.00;;;25.10;61.60;;;;;;5052415;28;20033;-85
2021/09/04 07:51:21;;;;;;;8.30;7.78;;;25.40;61.00;;;;;;5059549;28;20025;-85
2021/09/04 07:53:47;;;;;;;9.50;9.00;;;25.60;60.50;;;;;;5054160;28;20330;-85
2021/09/04 07:56:13;;;;;;;12.27;11.57;;;25.70;60.10;;;;;;5052582;28;20025;-85
2021/09/04 07:58:39;;;;;;;11.00;10.50;;;25.80;60.00;;;;;;5054262;28;20036;-85
2021/09/04 08:01:05;;;;;;;13.57;11.27;;;25.80;60.00;;;;;;5050750;28;20060;-85
2021/09/04 08:03:31;;;;;;;12.02;11.43;;;25.80;60.00;;;;;;5056867;28;20033;-85
2021/09/04 08:05:57;;;;;;;11.75;11.13;;;25.80;60.10;;;;;;5055161;28;20056;-83
2021/09/04 08:08:23;;;;;;;11.57;11.00;;;25.80;60.20;;;;;;5054755;28;20029;-85
2021/09/04 08:10:49;;;;;;;11.25;10.75;;;25.80;60.40;;;;;;5055167;28;20033;-85
2021/09/04 08:13:16;;;;;;;11.27;10.52;;;25.80;60.20;;;;;;5051396;28;20029;-85
2021/09/04 08:15:42;;;;;;;13.45;12.65;;;26.00;60.00;;;;;;5052016;28;20029;-85
2021/09/04 08:18:08;;;;;;;13.10;12.48;;;26.10;59.70;;;;;;5056294;28;20354;-85
2021/09/04 08:20:34;;;;;;;14.90;14.15;;;26.30;59.50;;;;;;5053931;28;20036;-85
2021/09/04 08:23:00;;;;;;;20.85;19.85;;;26.50;59.30;;;;;;5053441;28;20021;-85
2021/09/04 08:25:26;;;;;;;20.80;19.80;;;26.70;59.00;;;;;;5051248;28;20055;-85
2021/09/04 08:27:52;;;;;;;17.75;16.85;;;26.80;58.70;;;;;;5050567;28;20041;-85
2021/09/04 08:30:18;;;;;;;21.70;20.38;;;26.90;58.60;;;;;;5056384;28;20021;-84
2021/09/04 08:32:44;;;;;;;18.45;17.45;;;27.10;58.50;;;;;;5054954;28;20033;-85
2021/09/04 08:35:10;;;;;;;18.23;17.23;;;27.30;58.30;;;;;;5053235;28;20501;-85
2021/09/04 08:37:40;;;;;;;17.35;16.55;;;27.50;58.00;;;;;;5053314;28;20047;-81
2021/09/04 08:40:07;;;;;;;12.88;12.27;;;27.60;57.70;;;;;;5031353;28;20060;-85
2021/09/04 08:42:33;;;;;;;15.23;14.43;;;27.90;57.50;;;;;;5038392;28;20470;-85
2021/09/04 08:45:00;;;;;;;14.45;13.75;;;28.10;57.30;;;;;;5053939;28;20036;-85
2021/09/04 08:47:26;;;;;;;16.30;15.40;;;28.30;57.00;;;;;;5054412;28;20037;-86
2021/09/04 08:49:52;;;;;;;17.42;16.55;;;28.60;56.60;;;;;;5037001;28;20036;-86
2021/09/04 08:52:19;;;;;;;15.02;14.32;;;28.80;56.30;;;;;;5050819;28;20036;-84
2021/09/04 08:54:48;;;;;;;18.45;17.45;;;29.10;56.00;;;;;;5051953;28;20032;-86
2021/09/04 08:57:14;;;;;;;18.88;17.98;;;29.30;55.50;;;;;;5054729;28;20025;-86
2021/09/04 08:59:40;;;;;;;20.58;19.55;;;29.50;55.40;;;;;;5038365;28;20413;-86
2021/09/04 09:02:12;;;;;;;19.25;18.35;;;29.70;55.20;;;;;;5054162;28;20035;-86
2021/09/04 09:04:39;;;;;;;21.38;20.38;;;29.80;55.00;;;;;;5053375;28;20049;-85
2021/09/04 09:07:06;;;;;;;19.52;18.63;;;30.00;54.70;;;;;;5032597;28;20022;-86
2021/09/04 09:09:33;;;;;;;18.67;17.77;;;30.30;54.50;;;;;;5056062;28;20398;-86
2021/09/04 09:11:59;;;;;;;17.13;16.33;;;30.40;54.20;;;;;;5051962;28;20033;-86
2021/09/04 09:14:28;;;;;;;16.13;15.35;;;30.50;54.10;;;;;;5035140;28;20029;-86
2021/09/04 09:16:58;;;;;;;16.58;15.77;;;30.50;54.00;;;;;;5036767;28;20040;-86
2021/09/04 09:19:38;;;;;;;17.20;16.40;;;30.40;54.20;;;;;;5051778;28;20044;-86
2021/09/04 09:22:15;;;;;;;16.25;15.45;;;30.30;54.20;;;;;;5034572;28;20410;-85
2021/09/04 09:24:42;;;;;;;15.50;14.80;;;30.40;54.20;;;;;;5053594;28;20029;-86
2021/09/04 09:27:08;;;;;;;17.38;16.55;;;30.40;54.10;;;;;;5058951;28;20029;-85
2021/09/04 09:29:35;;;;;;;21.15;20.15;;;30.50;53.90;;;;;;5058155;28;20398;-86
2021/09/04 09:32:11;;;;;;;19.52;18.63;;;30.60;53.70;;;;;;5057993;28;20029;-87
2021/09/04 09:34:42;;;;;;;19.42;18.52;;;30.60;53.60;;;;;;5056436;28;20341;-86
2021/09/04 09:37:08;;;;;;;;;;;30.50;53.60;;;;;;5037204;28;20489;-85
2021/09/04 09:39:38;;;;;;;16.80;15.98;;;30.50;53.50;;;;;;5059011;28;19904;-86
2021/09/04 09:42:05;;;;;;;14.75;13.48;;;30.30;53.60;;;;;;5057509;28;20029;-86
2021/09/04 09:44:33;;;;;;;18.77;17.90;;;30.30;53.70;;;;;;5055373;28;20037;-86
2021/09/04 09:47:12;;;;;;;16.30;15.55;;;30.30;53.50;;;;;;5039815;28;20037;-86
2021/09/04 09:49:39;;;;;;;16.50;15.75;;;30.30;53.30;;;;;;5057473;28;20044;-84
2021/09/04 09:52:07;;;;;;;16.85;16.05;;;30.10;53.50;;;;;;5051108;28;20021;-85
2021/09/04 09:54:34;;;;;;;13.60;12.57;;;30.00;53.50;;;;;;5059029;28;20029;-86
2021/09/04 09:57:05;;;;;;;13.93;13.23;;;29.80;53.40;;;;;;5057512;28;20394;-86
2021/09/04 09:59:31;;;;;;;15.43;14.55;;;29.80;53.50;;;;;;5058015;28;20048;-86
2021/09/04 10:02:08;;;;;;;18.55;17.65;;;29.80;53.40;;;;;;5057120;28;20041;-86
2021/09/04 10:04:35;;;;;;;18.05;17.20;;;29.80;53.10;;;;;;5039606;28;20029;-86
2021/09/04 10:07:02;;;;;;;21.20;20.20;;;29.90;53.50;;;;;;5052066;28;20478;-86
2021/09/04 10:09:29;;;;;;;17.42;16.63;;;29.90;52.80;;;;;;5059366;28;20048;-80
2021/09/04 10:11:55;;;;;;;17.00;16.20;;;30.00;52.70;;;;;;5056290;28;20029;-87
2021/09/04 10:14:21;;;;;;;24.75;23.55;;;30.10;52.50;;;;;;5056205;28;20033;-86
2021/09/04 10:16:51;;;;;;;22.50;21.45;;;30.20;52.20;;;;;;5040707;28;20036;-86
2021/09/04 10:19:17;;;;;;;19.15;18.23;;;30.40;52.10;;;;;;5037359;28;20029;-86
2021/09/04 10:21:44;;;;;;;20.80;19.58;;;30.50;51.90;;;;;;5038437;28;20021;-86
2021/09/04 10:24:10;;;;;;;20.10;19.05;;;30.60;51.70;;;;;;5055781;28;20025;-86
2021/09/04 10:26:37;;;;;;;17.75;16.95;;;30.80;51.60;;;;;;5057320;28;20044;-86
2021/09/04 10:29:12;;;;;;;17.02;16.23;;;31.00;51.20;;;;;;5057138;28;20041;-86
2021/09/04 10:31:59;;;;;;;17.50;16.58;;;31.10;51.00;;;;;;5055068;28;20035;-85
2021/09/04 10:34:28;;;;;;;15.27;14.57;;;31.40;50.80;;;;;;5037360;28;20071;-86
2021/09/04 10:37:18;;;;;;;13.40;12.80;;;31.60;50.50;;;;;;5053404;28;20783;-86
2021/09/04 10:39:57;;;;;;;13.68;13.05;;;31.80;50.20;;;;;;5066689;28;20048;-86
2021/09/04 10:42:27;;;;;;;11.80;11.23;;;31.90;49.90;;;;;;5058028;28;20072;-86
2021/09/04 10:45:04;;;;;;;12.50;11.90;;;32.00;50.00;;;;;;5056793;28;20367;-86
2021/09/04 10:47:50;;;;;;;11.88;11.27;;;32.20;49.80;;;;;;5054470;28;20043;-86
2021/09/04 10:50:20;;;;;;;11.05;10.55;;;32.50;49.40;;;;;;5055215;28;20049;-85
2021/09/04 10:52:46;;;;;;;12.57;11.88;;;32.80;49.00;;;;;;5055401;28;20025;-86
2021/09/04 10:55:19;;;;;;;11.70;11.13;;;33.00;48.80;;;;;;5053573;28;20029;-87
2021/09/04 10:57:46;;;;;;;10.95;10.35;;;32.90;48.60;;;;;;5054902;28;20032;-84
2021/09/04 11:00:35;;;;;;;11.15;10.55;;;32.90;48.70;;;;;;5057902;28;20029;-86
2021/09/04 11:03:02;;;;;;;9.73;9.13;;;32.70;48.70;;;;;;5049952;28;20037;-86
2021/09/04 11:05:38;;;;;;;10.45;9.93;;;32.60;48.90;;;;;;5056461;28;20025;-85
2021/09/04 11:08:10;;;;;;;10.07;9.57;;;32.60;48.90;;;;;;5056363;28;20021;-86
2021/09/04 11:10:37;;;;;;;10.00;9.50;;;32.70;48.70;;;;;;5053608;28;20049;-87
2021/09/04 11:13:13;;;;;;;11.10;10.60;;;32.80;48.60;;;;;;5052048;28;20018;-86
2021/09/04 11:15:39;;;;;;;10.52;10.02;;;32.90;48.40;;;;;;5064531;28;20040;-85
2021/09/04 11:18:05;;;;;;;9.13;8.73;;;32.80;48.20;;;;;;5055889;28;20043;-88
2021/09/04 11:20:31;;;;;;;9.73;9.23;;;32.60;48.30;;;;;;5038490;28;20084;-85
2021/09/04 11:22:57;;;;;;;8.02;7.63;;;32.40;48.50;;;;;;5055987;28;20025;-86
2021/09/04 11:25:24;;;;;;;9.25;8.85;;;32.30;48.50;;;;;;5053362;28;20021;-86
2021/09/04 11:27:50;;;;;;;7.68;7.32;;;32.30;48.60;;;;;;5053298;28;20029;-85
2021/09/04 11:30:22;;;;;;;7.28;6.88;;;32.20;48.60;;;;;;5055815;28;20044;-86
2021/09/04 11:32:48;;;;;;;7.50;7.10;;;32.10;48.60;;;;;;5038670;28;20425;-85
2021/09/04 11:35:15;;;;;;;7.85;7.45;;;31.90;49.30;;;;;;5055724;28;20045;-85
2021/09/04 11:37:42;;;;;;;8.18;7.78;;;31.80;48.80;;;;;;5054538;28;20087;-85
2021/09/04 11:40:10;;;;;;;8.30;7.90;;;31.70;48.90;;;;;;5049455;28;20040;-85
2021/09/04 11:42:46;;;;;;;8.98;8.50;;;31.60;48.90;;;;;;5056247;28;20095;-86
2021/09/04 11:45:17;;;;;;;7.90;7.50;;;31.60;48.90;;;;;;5054533;28;20032;-86
2021/09/04 11:47:45;;;;;;;12.57;7.75;;;31.60;48.70;;;;;;5054464;28;20037;-86
2021/09/04 11:50:25;;;;;;;9.40;9.00;;;31.70;48.80;;;;;;5052051;28;20037;-85
2021/09/04 11:52:51;;;;;;;8.17;7.77;;;31.60;48.60;;;;;;5037906;28;20035;-86
2021/09/04 11:55:22;;;;;;;10.10;9.60;;;31.50;48.70;;;;;;5051863;28;20040;-85
2021/09/04 11:57:50;;;;;;;8.85;8.38;;;31.40;48.90;;;;;;5051719;28;20039;-85
2021/09/04 12:00:20;;;;;;;7.80;7.40;;;31.10;49.20;;;;;;5086670;28;20021;-85
2021/09/04 12:02:55;;;;;;;8.48;8.07;;;30.90;49.50;;;;;;5054133;28;20409;-86
2021/09/04 12:05:23;;;;;;;9.20;8.70;;;30.80;49.50;;;;;;5055345;28;20029;-85
2021/09/04 12:07:49;;;;;;;13.90;13.30;;;30.80;49.40;;;;;;5054195;28;20052;-86
2021/09/04 12:10:16;;;;;;;8.38;7.97;;;30.80;49.30;;;;;;5051244;28;20037;-84
2021/09/04 12:12:43;;;;;;;8.93;8.45;;;30.70;49.40;;;;;;5036500;28;20032;-83
2021/09/04 12:15:11;;;;;;;8.77;8.38;;;30.40;49.40;;;;;;5071201;28;20465;-85
2021/09/04 12:18:03;;;;;;;11.68;11.15;;;30.10;49.60;;;;;;5053880;28;20028;-85
2021/09/04 12:20:40;;;;;;;9.95;9.48;;;29.90;49.90;;;;;;5053753;28;20033;-83
2021/09/04 12:23:20;;;;;;;10.65;10.07;;;29.70;50.10;;;;;;5037429;28;20021;-85
2021/09/04 12:25:47;;;;;;;9.70;9.20;;;29.50;50.20;;;;;;5055088;28;20036;-84
2021/09/04 12:28:19;;;;;;;8.20;7.80;;;29.40;50.40;;;;;;5049046;28;20024;-84
2021/09/04 12:31:06;;;;;;;8.35;7.95;;;29.30;50.50;;;;;;5051348;28;20036;-85
2021/09/04 12:33:33;;;;;;;9.35;8.88;;;29.30;50.50;;;;;;5063202;28;20119;-85
2021/09/04 12:35:59;;;;;;;10.23;9.73;;;29.40;50.40;;;;;;5055325;28;20063;-85
2021/09/04 12:38:34;;;;;;;9.80;9.38;;;29.50;50.20;;;;;;5054835;28;20482;-86
2021/09/04 12:41:08;;;;;;;9.85;9.35;;;29.60;50.00;;;;;;5023152;28;20037;-85